sensor_id;sensor_type;location;lat;lon;timestamp;P1;durP1;ratioP1;P2;durP2;ratioP2
12363;SDS011;6246;50.826;4.712;2022-12-29T00:01:58;1.20;;;1.10;;
12363;SDS011;6246;50.826;4.712;2022-12-29T00:04:24;1.23;;;0.93;;
12363;SDS011;6246;50.826;4.712;2022-12-29T00:06:51;1.03;;;0.80;;
12363;SDS011;6246;50.826;4.712;2022-12-29T00:09:17;1.63;;;0.90;;
12363;SDS011;6246;50.826;4.712;2022-12-29T00:11:43;1.47;;;0.90;;
12363;SDS011;6246;50.826;4.712;2022-12-29T00:14:09;1.07;;;0.90;;
12363;SDS011;6246;50.826;4.712;2022-12-29T00:16:54;1.30;;;0.90;;
12363;SDS011;6246;50.826;4.712;2022-12-29T00:19:20;1.23;;;0.80;;
12363;SDS011;6246;50.826;4.712;2022-12-29T00:22:05;1.03;;;0.83;;
12363;SDS011;6246;50.826;4.712;2022-12-29T00:24:50;1.03;;;0.87;;
12363;SDS011;6246;50.826;4.712;2022-12-29T00:27:35;2.20;;;1.23;;
12363;SDS011;6246;50.826;4.712;2022-12-29T00:30:20;1.00;;;1.00;;
12363;SDS011;6246;50.826;4.712;2022-12-29T00:33:12;0.60;;;0.60;;
12363;SDS011;6246;50.826;4.712;2022-12-29T00:35:58;2.00;;;1.00;;
12363;SDS011;6246;50.826;4.712;2022-12-29T00:38:26;1.27;;;0.93;;
12363;SDS011;6246;50.826;4.712;2022-12-29T00:41:11;1.50;;;0.80;;
12363;SDS011;6246;50.826;4.712;2022-12-29T00:43:55;0.50;;;0.50;;
12363;SDS011;6246;50.826;4.712;2022-12-29T00:46:31;0.80;;;0.80;;
12363;SDS011;6246;50.826;4.712;2022-12-29T00:48:57;0.70;;;0.70;;
12363;SDS011;6246;50.826;4.712;2022-12-29T00:51:42;1.40;;;1.13;;
12363;SDS011;6246;50.826;4.712;2022-12-29T00:54:08;1.70;;;1.00;;
12363;SDS011;6246;50.826;4.712;2022-12-29T00:56:34;1.63;;;0.50;;
12363;SDS011;6246;50.826;4.712;2022-12-29T00:59:01;0.60;;;0.60;;
12363;SDS011;6246;50.826;4.712;2022-12-29T01:01:27;1.43;;;1.13;;
12363;SDS011;6246;50.826;4.712;2022-12-29T01:03:53;0.60;;;0.60;;
12363;SDS011;6246;50.826;4.712;2022-12-29T01:06:19;0.87;;;0.80;;
12363;SDS011;6246;50.826;4.712;2022-12-29T01:08:45;0.60;;;0.60;;
12363;SDS011;6246;50.826;4.712;2022-12-29T01:11:11;1.00;;;1.00;;
12363;SDS011;6246;50.826;4.712;2022-12-29T01:13:38;1.87;;;0.70;;
12363;SDS011;6246;50.826;4.712;2022-12-29T01:16:06;2.03;;;0.80;;
12363;SDS011;6246;50.826;4.712;2022-12-29T01:18:32;0.70;;;0.70;;
12363;SDS011;6246;50.826;4.712;2022-12-29T01:21:00;1.17;;;0.60;;
12363;SDS011;6246;50.826;4.712;2022-12-29T01:23:26;0.80;;;0.80;;
12363;SDS011;6246;50.826;4.712;2022-12-29T01:25:52;1.03;;;0.93;;
12363;SDS011;6246;50.826;4.712;2022-12-29T01:28:18;2.20;;;1.10;;
12363;SDS011;6246;50.826;4.712;2022-12-29T01:30:44;1.60;;;0.90;;
12363;SDS011;6246;50.826;4.712;2022-12-29T01:33:10;0.80;;;0.70;;
12363;SDS011;6246;50.826;4.712;2022-12-29T01:35:36;1.30;;;1.17;;
12363;SDS011;6246;50.826;4.712;2022-12-29T01:38:02;0.80;;;0.80;;
12363;SDS011;6246;50.826;4.712;2022-12-29T01:40:28;1.00;;;0.60;;
12363;SDS011;6246;50.826;4.712;2022-12-29T01:42:54;2.97;;;1.00;;
12363;SDS011;6246;50.826;4.712;2022-12-29T01:45:20;1.90;;;1.07;;
12363;SDS011;6246;50.826;4.712;2022-12-29T01:50:26;1.57;;;0.83;;
12363;SDS011;6246;50.826;4.712;2022-12-29T01:52:58;1.40;;;1.00;;
12363;SDS011;6246;50.826;4.712;2022-12-29T01:55:25;1.07;;;0.77;;
12363;SDS011;6246;50.826;4.712;2022-12-29T01:57:52;0.77;;;0.60;;
12363;SDS011;6246;50.826;4.712;2022-12-29T02:00:19;1.17;;;1.07;;
12363;SDS011;6246;50.826;4.712;2022-12-29T02:02:46;0.97;;;0.60;;
12363;SDS011;6246;50.826;4.712;2022-12-29T02:05:21;0.50;;;0.43;;
12363;SDS011;6246;50.826;4.712;2022-12-29T02:07:48;1.00;;;0.93;;
12363;SDS011;6246;50.826;4.712;2022-12-29T02:10:15;0.73;;;0.60;;
12363;SDS011;6246;50.826;4.712;2022-12-29T02:12:41;1.57;;;0.70;;
12363;SDS011;6246;50.826;4.712;2022-12-29T02:15:08;0.43;;;0.30;;
12363;SDS011;6246;50.826;4.712;2022-12-29T02:17:38;0.60;;;0.60;;
12363;SDS011;6246;50.826;4.712;2022-12-29T02:32:42;0.93;;;0.80;;
12363;SDS011;6246;50.826;4.712;2022-12-29T02:43:01;1.20;;;1.00;;
12363;SDS011;6246;50.826;4.712;2022-12-29T02:45:31;0.60;;;0.60;;
12363;SDS011;6246;50.826;4.712;2022-12-29T02:48:17;0.87;;;0.77;;
12363;SDS011;6246;50.826;4.712;2022-12-29T02:51:07;1.00;;;0.67;;
12363;SDS011;6246;50.826;4.712;2022-12-29T02:53:33;0.40;;;0.30;;
12363;SDS011;6246;50.826;4.712;2022-12-29T02:56:29;1.47;;;0.67;;
12363;SDS011;6246;50.826;4.712;2022-12-29T02:58:55;1.00;;;0.70;;
12363;SDS011;6246;50.826;4.712;2022-12-29T03:06:51;0.70;;;0.57;;
12363;SDS011;6246;50.826;4.712;2022-12-29T03:11:59;0.80;;;0.80;;
12363;SDS011;6246;50.826;4.712;2022-12-29T03:14:37;0.77;;;0.50;;
12363;SDS011;6246;50.826;4.712;2022-12-29T03:19:48;1.27;;;0.87;;
12363;SDS011;6246;50.826;4.712;2022-12-29T03:22:17;1.23;;;0.93;;
12363;SDS011;6246;50.826;4.712;2022-12-29T03:24:53;1.47;;;0.80;;
12363;SDS011;6246;50.826;4.712;2022-12-29T03:27:22;1.83;;;0.70;;
12363;SDS011;6246;50.826;4.712;2022-12-29T03:29:50;0.60;;;0.60;;
12363;SDS011;6246;50.826;4.712;2022-12-29T03:32:24;1.23;;;0.80;;
12363;SDS011;6246;50.826;4.712;2022-12-29T03:34:51;0.93;;;0.70;;
12363;SDS011;6246;50.826;4.712;2022-12-29T03:37:21;0.80;;;0.53;;
12363;SDS011;6246;50.826;4.712;2022-12-29T03:39:49;0.70;;;0.70;;
12363;SDS011;6246;50.826;4.712;2022-12-29T03:42:25;1.50;;;0.50;;
12363;SDS011;6246;50.826;4.712;2022-12-29T03:44:55;1.07;;;0.60;;
12363;SDS011;6246;50.826;4.712;2022-12-29T03:47:22;1.03;;;0.67;;
12363;SDS011;6246;50.826;4.712;2022-12-29T03:49:48;1.13;;;0.90;;
12363;SDS011;6246;50.826;4.712;2022-12-29T03:52:14;0.93;;;0.80;;
12363;SDS011;6246;50.826;4.712;2022-12-29T03:54:40;0.97;;;0.57;;
12363;SDS011;6246;50.826;4.712;2022-12-29T03:57:07;1.07;;;0.73;;
12363;SDS011;6246;50.826;4.712;2022-12-29T03:59:33;0.60;;;0.40;;
12363;SDS011;6246;50.826;4.712;2022-12-29T04:01:59;0.40;;;0.40;;
12363;SDS011;6246;50.826;4.712;2022-12-29T04:04:25;0.60;;;0.60;;
12363;SDS011;6246;50.826;4.712;2022-12-29T04:06:51;0.73;;;0.63;;
12363;SDS011;6246;50.826;4.712;2022-12-29T04:09:17;2.10;;;0.90;;
12363;SDS011;6246;50.826;4.712;2022-12-29T04:11:43;1.23;;;0.50;;
12363;SDS011;6246;50.826;4.712;2022-12-29T04:14:09;0.40;;;0.40;;
12363;SDS011;6246;50.826;4.712;2022-12-29T04:16:35;0.70;;;0.47;;
12363;SDS011;6246;50.826;4.712;2022-12-29T04:19:03;0.47;;;0.47;;
12363;SDS011;6246;50.826;4.712;2022-12-29T04:21:29;0.60;;;0.60;;
12363;SDS011;6246;50.826;4.712;2022-12-29T04:23:55;1.37;;;0.70;;
12363;SDS011;6246;50.826;4.712;2022-12-29T04:26:22;1.13;;;0.50;;
12363;SDS011;6246;50.826;4.712;2022-12-29T04:28:48;0.67;;;0.60;;
12363;SDS011;6246;50.826;4.712;2022-12-29T04:31:14;0.50;;;0.50;;
12363;SDS011;6246;50.826;4.712;2022-12-29T04:33:40;0.70;;;0.40;;
12363;SDS011;6246;50.826;4.712;2022-12-29T04:36:06;2.00;;;0.83;;
12363;SDS011;6246;50.826;4.712;2022-12-29T04:38:32;0.50;;;0.50;;
12363;SDS011;6246;50.826;4.712;2022-12-29T04:41:01;1.67;;;0.80;;
12363;SDS011;6246;50.826;4.712;2022-12-29T04:43:27;0.50;;;0.50;;
12363;SDS011;6246;50.826;4.712;2022-12-29T04:45:53;0.47;;;0.40;;
12363;SDS011;6246;50.826;4.712;2022-12-29T04:48:19;1.33;;;0.70;;
12363;SDS011;6246;50.826;4.712;2022-12-29T04:50:47;1.37;;;0.57;;
12363;SDS011;6246;50.826;4.712;2022-12-29T04:53:13;0.97;;;0.50;;
12363;SDS011;6246;50.826;4.712;2022-12-29T04:55:39;2.30;;;0.70;;
12363;SDS011;6246;50.826;4.712;2022-12-29T04:58:05;0.60;;;0.43;;
12363;SDS011;6246;50.826;4.712;2022-12-29T05:00:31;1.10;;;0.40;;
12363;SDS011;6246;50.826;4.712;2022-12-29T05:02:57;1.07;;;0.60;;
12363;SDS011;6246;50.826;4.712;2022-12-29T05:05:24;0.47;;;0.43;;
12363;SDS011;6246;50.826;4.712;2022-12-29T05:07:50;0.50;;;0.40;;
12363;SDS011;6246;50.826;4.712;2022-12-29T05:10:16;1.90;;;0.90;;
12363;SDS011;6246;50.826;4.712;2022-12-29T05:12:42;0.43;;;0.43;;
12363;SDS011;6246;50.826;4.712;2022-12-29T05:15:09;0.70;;;0.70;;
12363;SDS011;6246;50.826;4.712;2022-12-29T05:17:35;1.47;;;0.70;;
12363;SDS011;6246;50.826;4.712;2022-12-29T05:20:02;0.60;;;0.60;;
12363;SDS011;6246;50.826;4.712;2022-12-29T05:22:28;0.80;;;0.50;;
12363;SDS011;6246;50.826;4.712;2022-12-29T05:24:54;2.03;;;0.80;;
12363;SDS011;6246;50.826;4.712;2022-12-29T05:27:20;0.50;;;0.30;;
12363;SDS011;6246;50.826;4.712;2022-12-29T05:29:46;0.60;;;0.50;;
12363;SDS011;6246;50.826;4.712;2022-12-29T05:32:12;1.27;;;0.90;;
12363;SDS011;6246;50.826;4.712;2022-12-29T05:34:38;0.50;;;0.50;;
12363;SDS011;6246;50.826;4.712;2022-12-29T05:37:04;1.80;;;1.03;;
12363;SDS011;6246;50.826;4.712;2022-12-29T05:39:31;1.43;;;0.57;;
12363;SDS011;6246;50.826;4.712;2022-12-29T05:41:57;0.67;;;0.63;;
12363;SDS011;6246;50.826;4.712;2022-12-29T05:44:23;0.30;;;0.30;;
12363;SDS011;6246;50.826;4.712;2022-12-29T05:46:49;1.27;;;0.30;;
12363;SDS011;6246;50.826;4.712;2022-12-29T05:49:15;1.50;;;0.83;;
12363;SDS011;6246;50.826;4.712;2022-12-29T05:51:41;1.00;;;0.73;;
12363;SDS011;6246;50.826;4.712;2022-12-29T05:54:07;1.80;;;0.63;;
12363;SDS011;6246;50.826;4.712;2022-12-29T05:56:33;1.50;;;0.60;;
12363;SDS011;6246;50.826;4.712;2022-12-29T05:58:59;0.90;;;0.73;;
12363;SDS011;6246;50.826;4.712;2022-12-29T06:01:26;0.60;;;0.50;;
12363;SDS011;6246;50.826;4.712;2022-12-29T06:03:52;1.03;;;0.53;;
12363;SDS011;6246;50.826;4.712;2022-12-29T06:06:18;2.90;;;0.80;;
12363;SDS011;6246;50.826;4.712;2022-12-29T06:08:44;2.10;;;0.80;;
12363;SDS011;6246;50.826;4.712;2022-12-29T06:11:10;3.50;;;1.03;;
12363;SDS011;6246;50.826;4.712;2022-12-29T06:13:36;2.40;;;0.77;;
12363;SDS011;6246;50.826;4.712;2022-12-29T06:16:02;1.50;;;0.73;;
12363;SDS011;6246;50.826;4.712;2022-12-29T06:18:28;2.93;;;0.80;;
12363;SDS011;6246;50.826;4.712;2022-12-29T06:20:58;2.27;;;0.90;;
12363;SDS011;6246;50.826;4.712;2022-12-29T06:23:25;0.90;;;0.60;;
12363;SDS011;6246;50.826;4.712;2022-12-29T06:25:51;0.93;;;0.60;;
12363;SDS011;6246;50.826;4.712;2022-12-29T06:28:17;0.93;;;0.67;;
12363;SDS011;6246;50.826;4.712;2022-12-29T06:30:43;1.90;;;0.90;;
12363;SDS011;6246;50.826;4.712;2022-12-29T06:33:10;2.33;;;0.90;;
12363;SDS011;6246;50.826;4.712;2022-12-29T06:35:36;0.50;;;0.50;;
12363;SDS011;6246;50.826;4.712;2022-12-29T06:38:02;0.87;;;0.40;;
12363;SDS011;6246;50.826;4.712;2022-12-29T06:40:28;1.80;;;0.60;;
12363;SDS011;6246;50.826;4.712;2022-12-29T06:42:55;0.93;;;0.60;;
12363;SDS011;6246;50.826;4.712;2022-12-29T06:45:21;1.20;;;0.50;;
12363;SDS011;6246;50.826;4.712;2022-12-29T06:47:47;2.33;;;1.17;;
12363;SDS011;6246;50.826;4.712;2022-12-29T06:50:13;3.80;;;0.80;;
12363;SDS011;6246;50.826;4.712;2022-12-29T06:52:39;2.63;;;1.10;;
12363;SDS011;6246;50.826;4.712;2022-12-29T06:55:05;2.00;;;0.73;;
12363;SDS011;6246;50.826;4.712;2022-12-29T06:57:31;1.83;;;0.73;;
12363;SDS011;6246;50.826;4.712;2022-12-29T06:59:57;2.20;;;0.93;;
12363;SDS011;6246;50.826;4.712;2022-12-29T07:02:23;3.33;;;1.03;;
12363;SDS011;6246;50.826;4.712;2022-12-29T07:04:52;2.93;;;0.73;;
12363;SDS011;6246;50.826;4.712;2022-12-29T07:07:19;1.97;;;0.90;;
12363;SDS011;6246;50.826;4.712;2022-12-29T07:09:45;1.40;;;0.80;;
12363;SDS011;6246;50.826;4.712;2022-12-29T07:12:11;2.57;;;0.80;;
12363;SDS011;6246;50.826;4.712;2022-12-29T07:14:37;1.03;;;0.60;;
12363;SDS011;6246;50.826;4.712;2022-12-29T07:17:04;2.00;;;0.77;;
12363;SDS011;6246;50.826;4.712;2022-12-29T07:19:31;3.33;;;0.93;;
12363;SDS011;6246;50.826;4.712;2022-12-29T07:21:57;2.47;;;0.90;;
12363;SDS011;6246;50.826;4.712;2022-12-29T07:24:23;1.47;;;0.77;;
12363;SDS011;6246;50.826;4.712;2022-12-29T07:26:51;3.73;;;0.93;;
12363;SDS011;6246;50.826;4.712;2022-12-29T07:29:17;2.77;;;0.70;;
12363;SDS011;6246;50.826;4.712;2022-12-29T07:31:43;1.83;;;0.70;;
12363;SDS011;6246;50.826;4.712;2022-12-29T07:34:09;1.63;;;0.73;;
12363;SDS011;6246;50.826;4.712;2022-12-29T07:36:35;3.43;;;0.77;;
12363;SDS011;6246;50.826;4.712;2022-12-29T07:39:02;2.70;;;1.03;;
12363;SDS011;6246;50.826;4.712;2022-12-29T07:41:28;2.67;;;0.90;;
12363;SDS011;6246;50.826;4.712;2022-12-29T07:43:54;3.40;;;0.80;;
12363;SDS011;6246;50.826;4.712;2022-12-29T07:46:20;1.90;;;0.87;;
12363;SDS011;6246;50.826;4.712;2022-12-29T07:48:46;2.03;;;0.87;;
12363;SDS011;6246;50.826;4.712;2022-12-29T07:51:12;2.97;;;1.10;;
12363;SDS011;6246;50.826;4.712;2022-12-29T07:53:38;4.27;;;1.00;;
12363;SDS011;6246;50.826;4.712;2022-12-29T07:56:04;3.07;;;0.90;;
12363;SDS011;6246;50.826;4.712;2022-12-29T07:58:31;0.73;;;0.70;;
12363;SDS011;6246;50.826;4.712;2022-12-29T08:00:57;1.37;;;0.80;;
12363;SDS011;6246;50.826;4.712;2022-12-29T08:03:23;2.93;;;1.03;;
12363;SDS011;6246;50.826;4.712;2022-12-29T08:05:50;5.43;;;1.23;;
12363;SDS011;6246;50.826;4.712;2022-12-29T08:08:16;2.47;;;0.73;;
12363;SDS011;6246;50.826;4.712;2022-12-29T08:10:42;3.33;;;0.83;;
12363;SDS011;6246;50.826;4.712;2022-12-29T08:13:08;2.33;;;1.07;;
12363;SDS011;6246;50.826;4.712;2022-12-29T08:15:35;3.87;;;1.20;;
12363;SDS011;6246;50.826;4.712;2022-12-29T08:18:02;2.27;;;1.03;;
12363;SDS011;6246;50.826;4.712;2022-12-29T08:20:28;4.13;;;1.20;;
12363;SDS011;6246;50.826;4.712;2022-12-29T08:22:54;3.53;;;1.03;;
12363;SDS011;6246;50.826;4.712;2022-12-29T08:25:20;4.13;;;1.10;;
12363;SDS011;6246;50.826;4.712;2022-12-29T08:27:46;2.23;;;1.03;;
12363;SDS011;6246;50.826;4.712;2022-12-29T08:30:12;4.60;;;1.40;;
12363;SDS011;6246;50.826;4.712;2022-12-29T08:32:38;2.90;;;1.07;;
12363;SDS011;6246;50.826;4.712;2022-12-29T08:35:05;2.00;;;1.00;;
12363;SDS011;6246;50.826;4.712;2022-12-29T08:37:32;5.30;;;1.37;;
12363;SDS011;6246;50.826;4.712;2022-12-29T08:39:58;2.33;;;1.17;;
12363;SDS011;6246;50.826;4.712;2022-12-29T08:42:25;2.47;;;1.03;;
12363;SDS011;6246;50.826;4.712;2022-12-29T08:44:55;3.20;;;1.30;;
12363;SDS011;6246;50.826;4.712;2022-12-29T08:47:22;4.07;;;1.07;;
12363;SDS011;6246;50.826;4.712;2022-12-29T08:49:48;3.03;;;0.97;;
12363;SDS011;6246;50.826;4.712;2022-12-29T08:52:14;4.97;;;1.63;;
12363;SDS011;6246;50.826;4.712;2022-12-29T08:54:40;2.87;;;1.43;;
12363;SDS011;6246;50.826;4.712;2022-12-29T08:57:06;2.07;;;0.93;;
12363;SDS011;6246;50.826;4.712;2022-12-29T08:59:32;5.80;;;1.33;;
12363;SDS011;6246;50.826;4.712;2022-12-29T09:01:58;3.10;;;1.37;;
12363;SDS011;6246;50.826;4.712;2022-12-29T09:04:24;2.97;;;0.97;;
12363;SDS011;6246;50.826;4.712;2022-12-29T09:06:50;3.80;;;1.00;;
12363;SDS011;6246;50.826;4.712;2022-12-29T09:09:16;4.13;;;1.33;;
12363;SDS011;6246;50.826;4.712;2022-12-29T09:11:43;4.57;;;0.87;;
12363;SDS011;6246;50.826;4.712;2022-12-29T09:14:09;2.00;;;1.10;;
12363;SDS011;6246;50.826;4.712;2022-12-29T09:16:36;3.13;;;1.10;;
12363;SDS011;6246;50.826;4.712;2022-12-29T09:19:02;2.97;;;1.53;;
12363;SDS011;6246;50.826;4.712;2022-12-29T09:21:28;4.17;;;1.50;;
12363;SDS011;6246;50.826;4.712;2022-12-29T09:23:54;3.07;;;1.10;;
12363;SDS011;6246;50.826;4.712;2022-12-29T09:26:20;1.40;;;1.13;;
12363;SDS011;6246;50.826;4.712;2022-12-29T09:28:46;3.83;;;1.17;;
12363;SDS011;6246;50.826;4.712;2022-12-29T09:31:13;4.47;;;1.33;;
12363;SDS011;6246;50.826;4.712;2022-12-29T09:33:39;3.10;;;1.30;;
12363;SDS011;6246;50.826;4.712;2022-12-29T09:36:05;4.43;;;1.03;;
12363;SDS011;6246;50.826;4.712;2022-12-29T09:38:31;2.10;;;0.90;;
12363;SDS011;6246;50.826;4.712;2022-12-29T09:41:01;3.20;;;1.20;;
12363;SDS011;6246;50.826;4.712;2022-12-29T09:48:33;3.50;;;1.13;;
12363;SDS011;6246;50.826;4.712;2022-12-29T09:51:02;2.17;;;0.87;;
12363;SDS011;6246;50.826;4.712;2022-12-29T09:53:33;5.03;;;1.50;;
12363;SDS011;6246;50.826;4.712;2022-12-29T09:56:02;3.83;;;1.83;;
12363;SDS011;6246;50.826;4.712;2022-12-29T09:58:36;2.80;;;1.23;;
12363;SDS011;6246;50.826;4.712;2022-12-29T10:03:36;3.73;;;1.37;;
12363;SDS011;6246;50.826;4.712;2022-12-29T10:06:26;4.70;;;1.20;;
12363;SDS011;6246;50.826;4.712;2022-12-29T10:09:02;5.83;;;1.57;;
12363;SDS011;6246;50.826;4.712;2022-12-29T10:16:51;4.40;;;1.33;;
12363;SDS011;6246;50.826;4.712;2022-12-29T10:19:26;5.07;;;1.67;;
12363;SDS011;6246;50.826;4.712;2022-12-29T10:22:04;2.57;;;1.30;;
12363;SDS011;6246;50.826;4.712;2022-12-29T10:24:33;2.77;;;1.00;;
12363;SDS011;6246;50.826;4.712;2022-12-29T10:27:00;2.27;;;1.03;;
12363;SDS011;6246;50.826;4.712;2022-12-29T10:29:33;3.40;;;1.40;;
12363;SDS011;6246;50.826;4.712;2022-12-29T10:32:03;6.57;;;1.73;;
12363;SDS011;6246;50.826;4.712;2022-12-29T10:34:31;3.77;;;1.20;;
12363;SDS011;6246;50.826;4.712;2022-12-29T10:37:01;2.93;;;1.07;;
12363;SDS011;6246;50.826;4.712;2022-12-29T10:39:38;5.03;;;1.40;;
12363;SDS011;6246;50.826;4.712;2022-12-29T10:42:14;6.00;;;1.50;;
12363;SDS011;6246;50.826;4.712;2022-12-29T10:44:41;4.37;;;1.40;;
12363;SDS011;6246;50.826;4.712;2022-12-29T10:47:10;4.00;;;1.20;;
12363;SDS011;6246;50.826;4.712;2022-12-29T10:49:39;5.47;;;1.80;;
12363;SDS011;6246;50.826;4.712;2022-12-29T10:52:05;1.40;;;0.83;;
12363;SDS011;6246;50.826;4.712;2022-12-29T10:54:33;5.53;;;1.83;;
12363;SDS011;6246;50.826;4.712;2022-12-29T10:57:03;3.67;;;1.30;;
12363;SDS011;6246;50.826;4.712;2022-12-29T10:59:31;3.20;;;1.60;;
12363;SDS011;6246;50.826;4.712;2022-12-29T11:07:05;4.50;;;1.73;;
12363;SDS011;6246;50.826;4.712;2022-12-29T11:09:33;3.33;;;1.20;;
12363;SDS011;6246;50.826;4.712;2022-12-29T11:12:15;3.13;;;1.10;;
12363;SDS011;6246;50.826;4.712;2022-12-29T11:14:43;3.20;;;1.20;;
12363;SDS011;6246;50.826;4.712;2022-12-29T11:17:09;3.90;;;1.10;;
12363;SDS011;6246;50.826;4.712;2022-12-29T11:19:39;3.83;;;1.63;;
12363;SDS011;6246;50.826;4.712;2022-12-29T11:24:43;3.77;;;1.33;;
12363;SDS011;6246;50.826;4.712;2022-12-29T11:27:20;4.60;;;1.60;;
12363;SDS011;6246;50.826;4.712;2022-12-29T11:29:48;2.50;;;0.80;;
12363;SDS011;6246;50.826;4.712;2022-12-29T11:32:18;4.20;;;1.67;;
12363;SDS011;6246;50.826;4.712;2022-12-29T11:34:44;2.57;;;1.10;;
12363;SDS011;6246;50.826;4.712;2022-12-29T11:37:11;2.43;;;1.27;;
12363;SDS011;6246;50.826;4.712;2022-12-29T11:39:51;3.47;;;1.10;;
12363;SDS011;6246;50.826;4.712;2022-12-29T11:42:21;3.10;;;1.60;;
12363;SDS011;6246;50.826;4.712;2022-12-29T11:44:48;3.87;;;1.30;;
12363;SDS011;6246;50.826;4.712;2022-12-29T11:47:22;2.47;;;1.20;;
12363;SDS011;6246;50.826;4.712;2022-12-29T11:49:50;2.50;;;1.00;;
12363;SDS011;6246;50.826;4.712;2022-12-29T11:52:20;1.90;;;1.33;;
12363;SDS011;6246;50.826;4.712;2022-12-29T11:54:46;2.50;;;1.07;;
12363;SDS011;6246;50.826;4.712;2022-12-29T11:57:13;2.77;;;1.43;;
12363;SDS011;6246;50.826;4.712;2022-12-29T11:59:42;3.13;;;1.20;;
12363;SDS011;6246;50.826;4.712;2022-12-29T12:04:43;3.43;;;1.20;;
12363;SDS011;6246;50.826;4.712;2022-12-29T12:09:51;3.77;;;1.60;;
12363;SDS011;6246;50.826;4.712;2022-12-29T12:12:24;1.50;;;0.87;;
12363;SDS011;6246;50.826;4.712;2022-12-29T12:14:55;4.87;;;1.50;;
12363;SDS011;6246;50.826;4.712;2022-12-29T12:17:47;2.77;;;1.57;;
12363;SDS011;6246;50.826;4.712;2022-12-29T12:20:16;1.50;;;1.10;;
12363;SDS011;6246;50.826;4.712;2022-12-29T12:22:49;4.43;;;1.53;;
12363;SDS011;6246;50.826;4.712;2022-12-29T12:25:18;4.47;;;1.53;;
12363;SDS011;6246;50.826;4.712;2022-12-29T12:27:58;4.30;;;1.47;;
12363;SDS011;6246;50.826;4.712;2022-12-29T12:30:27;4.40;;;1.20;;
12363;SDS011;6246;50.826;4.712;2022-12-29T12:33:13;2.93;;;0.90;;
12363;SDS011;6246;50.826;4.712;2022-12-29T12:35:57;3.30;;;1.10;;
12363;SDS011;6246;50.826;4.712;2022-12-29T12:43:43;2.43;;;1.40;;
12363;SDS011;6246;50.826;4.712;2022-12-29T12:51:34;1.90;;;1.37;;
12363;SDS011;6246;50.826;4.712;2022-12-29T12:56:44;3.10;;;1.27;;
12363;SDS011;6246;50.826;4.712;2022-12-29T13:06:58;4.03;;;1.53;;
12363;SDS011;6246;50.826;4.712;2022-12-29T13:12:14;4.17;;;1.47;;
12363;SDS011;6246;50.826;4.712;2022-12-29T13:19:51;2.73;;;1.30;;
12363;SDS011;6246;50.826;4.712;2022-12-29T13:30:19;2.40;;;1.10;;
12363;SDS011;6246;50.826;4.712;2022-12-29T13:37:54;6.40;;;1.73;;
12363;SDS011;6246;50.826;4.712;2022-12-29T13:40:23;6.23;;;1.33;;
12363;SDS011;6246;50.826;4.712;2022-12-29T13:42:50;1.70;;;1.23;;
12363;SDS011;6246;50.826;4.712;2022-12-29T13:45:21;2.07;;;1.27;;
12363;SDS011;6246;50.826;4.712;2022-12-29T13:47:53;3.03;;;1.00;;
12363;SDS011;6246;50.826;4.712;2022-12-29T13:50:21;3.87;;;1.47;;
12363;SDS011;6246;50.826;4.712;2022-12-29T14:06:19;3.27;;;1.20;;
12363;SDS011;6246;50.826;4.712;2022-12-29T14:08:46;3.27;;;1.50;;
12363;SDS011;6246;50.826;4.712;2022-12-29T14:11:14;2.70;;;1.37;;
12363;SDS011;6246;50.826;4.712;2022-12-29T14:13:41;2.70;;;1.23;;
12363;SDS011;6246;50.826;4.712;2022-12-29T14:16:10;3.17;;;1.73;;
12363;SDS011;6246;50.826;4.712;2022-12-29T14:18:46;4.47;;;1.60;;
12363;SDS011;6246;50.826;4.712;2022-12-29T14:23:42;2.43;;;1.20;;
12363;SDS011;6246;50.826;4.712;2022-12-29T14:26:17;2.97;;;0.90;;
12363;SDS011;6246;50.826;4.712;2022-12-29T14:36:33;1.30;;;0.87;;
12363;SDS011;6246;50.826;4.712;2022-12-29T14:38:59;2.97;;;1.20;;
12363;SDS011;6246;50.826;4.712;2022-12-29T14:41:27;3.07;;;1.20;;
12363;SDS011;6246;50.826;4.712;2022-12-29T14:44:03;1.63;;;0.77;;
12363;SDS011;6246;50.826;4.712;2022-12-29T14:49:21;4.37;;;1.10;;
12363;SDS011;6246;50.826;4.712;2022-12-29T14:51:49;3.43;;;1.27;;
12363;SDS011;6246;50.826;4.712;2022-12-29T14:57:00;2.30;;;0.87;;
12363;SDS011;6246;50.826;4.712;2022-12-29T14:59:28;3.50;;;1.33;;
12363;SDS011;6246;50.826;4.712;2022-12-29T15:01:54;3.60;;;1.20;;
12363;SDS011;6246;50.826;4.712;2022-12-29T15:04:22;1.50;;;0.93;;
12363;SDS011;6246;50.826;4.712;2022-12-29T15:06:49;3.73;;;1.33;;
12363;SDS011;6246;50.826;4.712;2022-12-29T15:09:19;2.10;;;1.20;;
12363;SDS011;6246;50.826;4.712;2022-12-29T15:16:57;2.93;;;1.23;;
12363;SDS011;6246;50.826;4.712;2022-12-29T15:19:23;3.87;;;1.17;;
12363;SDS011;6246;50.826;4.712;2022-12-29T15:21:50;1.53;;;0.80;;
12363;SDS011;6246;50.826;4.712;2022-12-29T15:24:16;2.97;;;1.43;;
12363;SDS011;6246;50.826;4.712;2022-12-29T15:26:44;2.27;;;1.30;;
12363;SDS011;6246;50.826;4.712;2022-12-29T15:31:56;2.00;;;1.00;;
12363;SDS011;6246;50.826;4.712;2022-12-29T15:34:23;2.58;;;1.10;;
12363;SDS011;6246;50.826;4.712;2022-12-29T15:36:49;2.33;;;1.37;;
12363;SDS011;6246;50.826;4.712;2022-12-29T15:39:34;2.77;;;1.50;;
12363;SDS011;6246;50.826;4.712;2022-12-29T15:44:56;3.80;;;1.50;;
12363;SDS011;6246;50.826;4.712;2022-12-29T15:47:22;4.37;;;1.83;;
12363;SDS011;6246;50.826;4.712;2022-12-29T15:49:51;2.77;;;1.20;;
12363;SDS011;6246;50.826;4.712;2022-12-29T15:52:21;3.27;;;1.33;;
12363;SDS011;6246;50.826;4.712;2022-12-29T15:54:48;1.83;;;1.43;;
12363;SDS011;6246;50.826;4.712;2022-12-29T15:57:25;3.63;;;1.27;;
12363;SDS011;6246;50.826;4.712;2022-12-29T15:59:51;2.80;;;1.67;;
12363;SDS011;6246;50.826;4.712;2022-12-29T16:02:18;1.93;;;0.90;;
12363;SDS011;6246;50.826;4.712;2022-12-29T16:04:44;2.03;;;1.23;;
12363;SDS011;6246;50.826;4.712;2022-12-29T16:07:24;4.10;;;1.47;;
12363;SDS011;6246;50.826;4.712;2022-12-29T16:09:54;1.47;;;1.00;;
12363;SDS011;6246;50.826;4.712;2022-12-29T16:12:21;3.07;;;1.20;;
12363;SDS011;6246;50.826;4.712;2022-12-29T16:14:49;3.63;;;1.77;;
12363;SDS011;6246;50.826;4.712;2022-12-29T16:17:16;4.00;;;1.20;;
12363;SDS011;6246;50.826;4.712;2022-12-29T16:19:48;4.77;;;1.87;;
12363;SDS011;6246;50.826;4.712;2022-12-29T16:22:25;2.57;;;1.23;;
12363;SDS011;6246;50.826;4.712;2022-12-29T16:24:53;3.67;;;1.40;;
12363;SDS011;6246;50.826;4.712;2022-12-29T16:27:21;2.50;;;1.00;;
12363;SDS011;6246;50.826;4.712;2022-12-29T16:29:49;3.87;;;1.40;;
12363;SDS011;6246;50.826;4.712;2022-12-29T16:32:24;2.53;;;1.30;;
12363;SDS011;6246;50.826;4.712;2022-12-29T16:34:51;4.43;;;1.47;;
12363;SDS011;6246;50.826;4.712;2022-12-29T16:37:32;1.57;;;0.97;;
12363;SDS011;6246;50.826;4.712;2022-12-29T16:47:47;3.50;;;1.50;;
12363;SDS011;6246;50.826;4.712;2022-12-29T16:50:18;4.80;;;1.57;;
12363;SDS011;6246;50.826;4.712;2022-12-29T16:52:48;4.47;;;1.23;;
12363;SDS011;6246;50.826;4.712;2022-12-29T16:55:15;4.00;;;1.23;;
12363;SDS011;6246;50.826;4.712;2022-12-29T16:57:42;3.70;;;1.90;;
12363;SDS011;6246;50.826;4.712;2022-12-29T17:03:04;5.23;;;2.10;;
12363;SDS011;6246;50.826;4.712;2022-12-29T17:05:31;3.43;;;1.50;;
12363;SDS011;6246;50.826;4.712;2022-12-29T17:07:57;3.30;;;1.60;;
12363;SDS011;6246;50.826;4.712;2022-12-29T17:10:25;3.57;;;1.40;;
12363;SDS011;6246;50.826;4.712;2022-12-29T17:13:12;5.37;;;1.87;;
12363;SDS011;6246;50.826;4.712;2022-12-29T17:15:38;3.83;;;1.60;;
12363;SDS011;6246;50.826;4.712;2022-12-29T17:18:04;4.97;;;1.97;;
12363;SDS011;6246;50.826;4.712;2022-12-29T17:20:30;5.60;;;1.70;;
12363;SDS011;6246;50.826;4.712;2022-12-29T17:22:57;3.73;;;1.33;;
12363;SDS011;6246;50.826;4.712;2022-12-29T17:25:42;5.97;;;1.83;;
12363;SDS011;6246;50.826;4.712;2022-12-29T17:31:09;4.17;;;1.50;;
12363;SDS011;6246;50.826;4.712;2022-12-29T17:33:36;4.03;;;1.90;;
12363;SDS011;6246;50.826;4.712;2022-12-29T17:36:03;3.97;;;2.00;;
12363;SDS011;6246;50.826;4.712;2022-12-29T17:38:30;3.70;;;1.30;;
12363;SDS011;6246;50.826;4.712;2022-12-29T17:40:56;3.07;;;1.53;;
12363;SDS011;6246;50.826;4.712;2022-12-29T17:43:23;3.37;;;1.60;;
12363;SDS011;6246;50.826;4.712;2022-12-29T17:45:56;4.13;;;1.97;;